sensor_id;sensor_type;location;lat;lon;timestamp;temperature;humidity
18721;DHT22;9489;50.948;3.114;2023-07-20T00:00:05;16.60;99.90
18721;DHT22;9489;50.948;3.114;2023-07-20T00:02:31;16.60;99.90
18721;DHT22;9489;50.948;3.114;2023-07-20T00:04:56;16.60;99.90
18721;DHT22;9489;50.948;3.114;2023-07-20T00:07:22;16.60;99.90
18721;DHT22;9489;50.948;3.114;2023-07-20T00:09:47;16.60;99.90
18721;DHT22;9489;50.948;3.114;2023-07-20T00:12:14;16.60;99.90
18721;DHT22;9489;50.948;3.114;2023-07-20T00:14:39;16.60;99.90
18721;DHT22;9489;50.948;3.114;2023-07-20T00:17:05;16.60;99.90
18721;DHT22;9489;50.948;3.114;2023-07-20T00:19:31;16.60;99.90
18721;DHT22;9489;50.948;3.114;2023-07-20T00:21:57;16.60;99.90
18721;DHT22;9489;50.948;3.114;2023-07-20T00:24:23;16.50;99.90
18721;DHT22;9489;50.948;3.114;2023-07-20T00:26:49;16.50;99.90
18721;DHT22;9489;50.948;3.114;2023-07-20T00:29:15;16.50;99.90
18721;DHT22;9489;50.948;3.114;2023-07-20T00:31:40;16.50;99.90
18721;DHT22;9489;50.948;3.114;2023-07-20T00:34:06;16.50;99.90
18721;DHT22;9489;50.948;3.114;2023-07-20T00:36:32;16.60;99.90
18721;DHT22;9489;50.948;3.114;2023-07-20T00:38:58;16.60;99.90
18721;DHT22;9489;50.948;3.114;2023-07-20T00:41:23;16.50;99.90
18721;DHT22;9489;50.948;3.114;2023-07-20T00:43:50;16.40;99.90
18721;DHT22;9489;50.948;3.114;2023-07-20T00:46:16;16.40;99.90
18721;DHT22;9489;50.948;3.114;2023-07-20T00:48:42;16.50;99.90
18721;DHT22;9489;50.948;3.114;2023-07-20T00:51:08;16.40;99.90
18721;DHT22;9489;50.948;3.114;2023-07-20T00:53:34;16.40;99.90
18721;DHT22;9489;50.948;3.114;2023-07-20T00:56:00;16.40;99.90
18721;DHT22;9489;50.948;3.114;2023-07-20T00:58:26;16.30;99.90
18721;DHT22;9489;50.948;3.114;2023-07-20T01:00:51;16.30;99.90
18721;DHT22;9489;50.948;3.114;2023-07-20T01:03:17;16.20;99.90
18721;DHT22;9489;50.948;3.114;2023-07-20T01:05:55;16.30;99.90
18721;DHT22;9489;50.948;3.114;2023-07-20T01:08:33;16.30;99.90
18721;DHT22;9489;50.948;3.114;2023-07-20T01:11:13;16.30;99.90
18721;DHT22;9489;50.948;3.114;2023-07-20T01:13:41;16.30;99.90
18721;DHT22;9489;50.948;3.114;2023-07-20T01:16:08;16.30;99.90
18721;DHT22;9489;50.948;3.114;2023-07-20T01:18:33;16.20;99.90
18721;DHT22;9489;50.948;3.114;2023-07-20T01:21:06;16.20;99.90
18721;DHT22;9489;50.948;3.114;2023-07-20T01:23:57;16.20;99.90
18721;DHT22;9489;50.948;3.114;2023-07-20T01:26:37;16.10;99.90
18721;DHT22;9489;50.948;3.114;2023-07-20T01:31:34;15.90;99.90
18721;DHT22;9489;50.948;3.114;2023-07-20T01:34:02;15.90;99.90
18721;DHT22;9489;50.948;3.114;2023-07-20T01:36:32;15.80;99.90
18721;DHT22;9489;50.948;3.114;2023-07-20T01:38:59;15.80;99.90
18721;DHT22;9489;50.948;3.114;2023-07-20T01:41:24;15.70;99.90
18721;DHT22;9489;50.948;3.114;2023-07-20T01:43:50;15.70;99.90
18721;DHT22;9489;50.948;3.114;2023-07-20T01:46:16;15.80;99.90
18721;DHT22;9489;50.948;3.114;2023-07-20T01:48:42;15.80;99.90
18721;DHT22;9489;50.948;3.114;2023-07-20T01:51:08;15.90;99.90
18721;DHT22;9489;50.948;3.114;2023-07-20T01:53:33;15.90;99.90
18721;DHT22;9489;50.948;3.114;2023-07-20T01:55:59;15.90;99.90
18721;DHT22;9489;50.948;3.114;2023-07-20T01:58:25;15.90;99.90
18721;DHT22;9489;50.948;3.114;2023-07-20T02:00:50;16.00;99.90
18721;DHT22;9489;50.948;3.114;2023-07-20T02:03:16;16.00;99.90
18721;DHT22;9489;50.948;3.114;2023-07-20T02:05:45;16.10;99.90
18721;DHT22;9489;50.948;3.114;2023-07-20T02:08:10;16.10;99.90
18721;DHT22;9489;50.948;3.114;2023-07-20T02:10:36;16.20;99.90
18721;DHT22;9489;50.948;3.114;2023-07-20T02:13:03;16.30;99.90
18721;DHT22;9489;50.948;3.114;2023-07-20T02:15:28;16.30;99.90
18721;DHT22;9489;50.948;3.114;2023-07-20T02:17:54;16.30;99.90
18721;DHT22;9489;50.948;3.114;2023-07-20T02:20:20;16.40;99.90
18721;DHT22;9489;50.948;3.114;2023-07-20T02:22:46;16.30;99.90
18721;DHT22;9489;50.948;3.114;2023-07-20T02:25:12;16.40;99.90
18721;DHT22;9489;50.948;3.114;2023-07-20T02:27:37;16.40;99.90
18721;DHT22;9489;50.948;3.114;2023-07-20T02:30:04;16.40;99.90
18721;DHT22;9489;50.948;3.114;2023-07-20T02:32:30;16.40;99.90
18721;DHT22;9489;50.948;3.114;2023-07-20T02:34:57;16.40;99.90
18721;DHT22;9489;50.948;3.114;2023-07-20T02:37:23;16.40;99.90
18721;DHT22;9489;50.948;3.114;2023-07-20T02:39:49;16.40;99.90
18721;DHT22;9489;50.948;3.114;2023-07-20T02:42:15;16.40;99.90
18721;DHT22;9489;50.948;3.114;2023-07-20T02:44:40;16.50;99.90
18721;DHT22;9489;50.948;3.114;2023-07-20T02:47:06;16.50;99.90
18721;DHT22;9489;50.948;3.114;2023-07-20T02:49:32;16.50;99.90
18721;DHT22;9489;50.948;3.114;2023-07-20T02:51:57;16.50;99.90
18721;DHT22;9489;50.948;3.114;2023-07-20T02:54:23;16.60;99.90
18721;DHT22;9489;50.948;3.114;2023-07-20T02:56:49;16.60;99.90
18721;DHT22;9489;50.948;3.114;2023-07-20T02:59:15;16.60;99.90
18721;DHT22;9489;50.948;3.114;2023-07-20T03:01:40;16.70;99.90
18721;DHT22;9489;50.948;3.114;2023-07-20T03:04:09;16.80;99.90
18721;DHT22;9489;50.948;3.114;2023-07-20T03:06:37;16.90;99.90
18721;DHT22;9489;50.948;3.114;2023-07-20T03:09:03;16.90;99.90
18721;DHT22;9489;50.948;3.114;2023-07-20T03:11:29;16.80;99.90
18721;DHT22;9489;50.948;3.114;2023-07-20T03:13:55;16.80;99.90
18721;DHT22;9489;50.948;3.114;2023-07-20T03:16:23;16.90;99.90
18721;DHT22;9489;50.948;3.114;2023-07-20T03:18:49;17.00;99.90
18721;DHT22;9489;50.948;3.114;2023-07-20T03:21:14;16.90;99.90
18721;DHT22;9489;50.948;3.114;2023-07-20T03:23:41;16.90;99.90
18721;DHT22;9489;50.948;3.114;2023-07-20T03:26:07;16.90;99.90
18721;DHT22;9489;50.948;3.114;2023-07-20T03:28:36;17.00;99.90
18721;DHT22;9489;50.948;3.114;2023-07-20T03:31:02;16.90;99.90
18721;DHT22;9489;50.948;3.114;2023-07-20T03:33:29;16.90;99.90
18721;DHT22;9489;50.948;3.114;2023-07-20T03:35:56;16.80;99.90
18721;DHT22;9489;50.948;3.114;2023-07-20T03:38:22;16.90;99.90
18721;DHT22;9489;50.948;3.114;2023-07-20T03:40:57;16.90;99.90
18721;DHT22;9489;50.948;3.114;2023-07-20T03:43:25;16.90;99.90
18721;DHT22;9489;50.948;3.114;2023-07-20T03:45:51;17.00;99.90
18721;DHT22;9489;50.948;3.114;2023-07-20T03:48:19;17.10;99.90
18721;DHT22;9489;50.948;3.114;2023-07-20T03:50:46;17.00;99.90
18721;DHT22;9489;50.948;3.114;2023-07-20T03:53:13;17.00;99.90
18721;DHT22;9489;50.948;3.114;2023-07-20T03:55:40;17.10;99.90
18721;DHT22;9489;50.948;3.114;2023-07-20T03:58:08;17.10;99.90
18721;DHT22;9489;50.948;3.114;2023-07-20T04:00:34;17.10;99.90
18721;DHT22;9489;50.948;3.114;2023-07-20T04:03:00;17.10;99.90
18721;DHT22;9489;50.948;3.114;2023-07-20T04:05:26;17.10;99.90
18721;DHT22;9489;50.948;3.114;2023-07-20T04:07:52;17.00;99.90
18721;DHT22;9489;50.948;3.114;2023-07-20T04:10:18;17.10;99.90
18721;DHT22;9489;50.948;3.114;2023-07-20T04:12:44;17.00;99.90
18721;DHT22;9489;50.948;3.114;2023-07-20T04:15:12;17.00;99.90
18721;DHT22;9489;50.948;3.114;2023-07-20T04:17:38;17.10;99.90
18721;DHT22;9489;50.948;3.114;2023-07-20T04:20:05;17.10;99.90
18721;DHT22;9489;50.948;3.114;2023-07-20T04:22:31;17.10;99.90
18721;DHT22;9489;50.948;3.114;2023-07-20T04:24:57;17.20;99.90
18721;DHT22;9489;50.948;3.114;2023-07-20T04:27:22;17.20;99.90
18721;DHT22;9489;50.948;3.114;2023-07-20T04:29:48;17.20;99.90
18721;DHT22;9489;50.948;3.114;2023-07-20T04:32:13;17.20;99.90
18721;DHT22;9489;50.948;3.114;2023-07-20T04:34:39;17.20;99.90
18721;DHT22;9489;50.948;3.114;2023-07-20T04:37:05;17.20;99.90
18721;DHT22;9489;50.948;3.114;2023-07-20T04:39:30;17.20;99.90
18721;DHT22;9489;50.948;3.114;2023-07-20T04:41:56;17.20;99.90
18721;DHT22;9489;50.948;3.114;2023-07-20T04:44:22;17.20;99.90
18721;DHT22;9489;50.948;3.114;2023-07-20T04:46:47;17.20;99.90
18721;DHT22;9489;50.948;3.114;2023-07-20T04:49:13;17.20;99.90
18721;DHT22;9489;50.948;3.114;2023-07-20T04:51:39;17.20;99.90
18721;DHT22;9489;50.948;3.114;2023-07-20T04:54:05;17.20;99.90
18721;DHT22;9489;50.948;3.114;2023-07-20T04:56:30;17.20;99.90
18721;DHT22;9489;50.948;3.114;2023-07-20T04:58:56;17.20;99.90
18721;DHT22;9489;50.948;3.114;2023-07-20T05:01:23;17.30;99.90
18721;DHT22;9489;50.948;3.114;2023-07-20T05:03:48;17.30;99.90
18721;DHT22;9489;50.948;3.114;2023-07-20T05:06:15;17.30;99.90
18721;DHT22;9489;50.948;3.114;2023-07-20T05:08:41;17.30;99.90
18721;DHT22;9489;50.948;3.114;2023-07-20T05:11:07;17.40;99.90
18721;DHT22;9489;50.948;3.114;2023-07-20T05:13:33;17.40;99.90
18721;DHT22;9489;50.948;3.114;2023-07-20T05:15:59;17.40;99.90
18721;DHT22;9489;50.948;3.114;2023-07-20T05:18:25;17.50;99.90
18721;DHT22;9489;50.948;3.114;2023-07-20T05:20:51;17.40;99.90
18721;DHT22;9489;50.948;3.114;2023-07-20T05:23:20;17.50;99.90
18721;DHT22;9489;50.948;3.114;2023-07-20T05:25:46;17.50;99.90
18721;DHT22;9489;50.948;3.114;2023-07-20T05:28:11;17.60;99.90
18721;DHT22;9489;50.948;3.114;2023-07-20T05:30:37;17.60;99.90
18721;DHT22;9489;50.948;3.114;2023-07-20T05:33:03;17.60;99.90
18721;DHT22;9489;50.948;3.114;2023-07-20T05:35:28;17.60;99.90
18721;DHT22;9489;50.948;3.114;2023-07-20T05:37:54;17.70;99.90
18721;DHT22;9489;50.948;3.114;2023-07-20T05:40:20;17.70;99.90
18721;DHT22;9489;50.948;3.114;2023-07-20T05:42:47;17.70;99.90
18721;DHT22;9489;50.948;3.114;2023-07-20T05:45:14;17.70;99.90
18721;DHT22;9489;50.948;3.114;2023-07-20T05:47:41;17.90;99.90
18721;DHT22;9489;50.948;3.114;2023-07-20T05:50:07;17.90;99.90
18721;DHT22;9489;50.948;3.114;2023-07-20T05:52:32;18.00;99.90
18721;DHT22;9489;50.948;3.114;2023-07-20T05:54:58;18.00;99.90
18721;DHT22;9489;50.948;3.114;2023-07-20T05:57:24;18.00;99.90
18721;DHT22;9489;50.948;3.114;2023-07-20T05:59:49;17.90;99.90
18721;DHT22;9489;50.948;3.114;2023-07-20T06:02:15;17.90;99.90
18721;DHT22;9489;50.948;3.114;2023-07-20T06:04:41;18.00;99.90
18721;DHT22;9489;50.948;3.114;2023-07-20T06:07:07;18.00;99.90
18721;DHT22;9489;50.948;3.114;2023-07-20T06:09:33;18.10;99.90
18721;DHT22;9489;50.948;3.114;2023-07-20T06:11:59;18.30;99.90
18721;DHT22;9489;50.948;3.114;2023-07-20T06:14:25;18.40;99.90
18721;DHT22;9489;50.948;3.114;2023-07-20T06:16:51;18.70;99.90
18721;DHT22;9489;50.948;3.114;2023-07-20T06:19:16;19.00;99.90
18721;DHT22;9489;50.948;3.114;2023-07-20T06:21:43;19.10;99.90
18721;DHT22;9489;50.948;3.114;2023-07-20T06:24:09;19.10;99.40
18721;DHT22;9489;50.948;3.114;2023-07-20T06:26:34;19.20;99.90
18721;DHT22;9489;50.948;3.114;2023-07-20T06:29:06;19.30;89.50
18721;DHT22;9489;50.948;3.114;2023-07-20T06:31:32;19.50;87.30
18721;DHT22;9489;50.948;3.114;2023-07-20T06:33:58;19.70;53.10
18721;DHT22;9489;50.948;3.114;2023-07-20T06:36:24;19.90;25.90
18721;DHT22;9489;50.948;3.114;2023-07-20T06:38:51;20.10;15.50
18721;DHT22;9489;50.948;3.114;2023-07-20T06:41:17;20.10;1.00
18721;DHT22;9489;50.948;3.114;2023-07-20T06:43:43;20.10;1.00
18721;DHT22;9489;50.948;3.114;2023-07-20T06:46:08;20.10;1.00
18721;DHT22;9489;50.948;3.114;2023-07-20T06:48:34;20.10;1.00
18721;DHT22;9489;50.948;3.114;2023-07-20T06:51:00;20.10;1.00
18721;DHT22;9489;50.948;3.114;2023-07-20T06:53:25;20.00;1.00
18721;DHT22;9489;50.948;3.114;2023-07-20T06:55:51;20.00;1.00
18721;DHT22;9489;50.948;3.114;2023-07-20T06:58:17;20.00;1.00
18721;DHT22;9489;50.948;3.114;2023-07-20T07:00:43;20.10;1.00
18721;DHT22;9489;50.948;3.114;2023-07-20T07:03:10;20.10;1.00
18721;DHT22;9489;50.948;3.114;2023-07-20T07:05:36;20.00;1.00
18721;DHT22;9489;50.948;3.114;2023-07-20T07:08:04;20.10;1.00
18721;DHT22;9489;50.948;3.114;2023-07-20T07:10:29;20.10;1.00
18721;DHT22;9489;50.948;3.114;2023-07-20T07:12:55;19.90;1.00
18721;DHT22;9489;50.948;3.114;2023-07-20T07:15:21;20.10;1.00
18721;DHT22;9489;50.948;3.114;2023-07-20T07:17:46;20.20;1.00
18721;DHT22;9489;50.948;3.114;2023-07-20T07:20:12;20.40;1.00
18721;DHT22;9489;50.948;3.114;2023-07-20T07:22:38;20.40;1.00
18721;DHT22;9489;50.948;3.114;2023-07-20T07:25:04;20.60;1.00
18721;DHT22;9489;50.948;3.114;2023-07-20T07:27:29;20.80;1.00
18721;DHT22;9489;50.948;3.114;2023-07-20T07:29:55;21.10;1.00
18721;DHT22;9489;50.948;3.114;2023-07-20T07:32:21;21.30;1.00
18721;DHT22;9489;50.948;3.114;2023-07-20T07:34:46;21.60;1.00
18721;DHT22;9489;50.948;3.114;2023-07-20T07:37:13;21.70;1.00
18721;DHT22;9489;50.948;3.114;2023-07-20T07:39:38;21.70;99.90
18721;DHT22;9489;50.948;3.114;2023-07-20T07:42:04;21.70;99.90
18721;DHT22;9489;50.948;3.114;2023-07-20T07:44:30;21.80;99.90
18721;DHT22;9489;50.948;3.114;2023-07-20T07:46:56;21.90;99.90
18721;DHT22;9489;50.948;3.114;2023-07-20T07:49:21;21.90;99.90
18721;DHT22;9489;50.948;3.114;2023-07-20T07:51:47;22.00;1.00
18721;DHT22;9489;50.948;3.114;2023-07-20T07:54:12;22.10;1.00
18721;DHT22;9489;50.948;3.114;2023-07-20T07:56:38;22.00;1.00
18721;DHT22;9489;50.948;3.114;2023-07-20T07:59:04;22.00;1.00
18721;DHT22;9489;50.948;3.114;2023-07-20T08:01:30;21.80;1.00
18721;DHT22;9489;50.948;3.114;2023-07-20T08:03:55;21.70;1.00
18721;DHT22;9489;50.948;3.114;2023-07-20T08:06:21;21.60;1.00
18721;DHT22;9489;50.948;3.114;2023-07-20T08:08:49;21.60;1.00
18721;DHT22;9489;50.948;3.114;2023-07-20T08:11:14;21.60;1.00
18721;DHT22;9489;50.948;3.114;2023-07-20T08:13:40;21.50;1.00
18721;DHT22;9489;50.948;3.114;2023-07-20T08:16:06;21.70;1.00
18721;DHT22;9489;50.948;3.114;2023-07-20T08:18:31;21.80;1.00
18721;DHT22;9489;50.948;3.114;2023-07-20T08:20:57;22.00;1.00
18721;DHT22;9489;50.948;3.114;2023-07-20T08:23:22;22.00;99.90
18721;DHT22;9489;50.948;3.114;2023-07-20T08:25:48;22.10;99.90
18721;DHT22;9489;50.948;3.114;2023-07-20T08:28:15;22.30;1.00
18721;DHT22;9489;50.948;3.114;2023-07-20T08:33:08;22.60;99.90
18721;DHT22;9489;50.948;3.114;2023-07-20T08:35:34;22.80;28.80
18721;DHT22;9489;50.948;3.114;2023-07-20T08:37:59;23.00;1.00
18721;DHT22;9489;50.948;3.114;2023-07-20T08:40:25;22.90;99.90
18721;DHT22;9489;50.948;3.114;2023-07-20T08:42:51;22.80;1.00
18721;DHT22;9489;50.948;3.114;2023-07-20T08:45:18;22.70;1.00
18721;DHT22;9489;50.948;3.114;2023-07-20T08:47:45;22.70;1.00
18721;DHT22;9489;50.948;3.114;2023-07-20T08:50:13;22.70;1.00
18721;DHT22;9489;50.948;3.114;2023-07-20T08:52:40;22.70;34.70
18721;DHT22;9489;50.948;3.114;2023-07-20T08:55:06;22.90;1.00
18721;DHT22;9489;50.948;3.114;2023-07-20T08:57:33;23.10;1.00
18721;DHT22;9489;50.948;3.114;2023-07-20T09:00:03;23.20;99.90
18721;DHT22;9489;50.948;3.114;2023-07-20T09:02:38;23.20;1.00
18721;DHT22;9489;50.948;3.114;2023-07-20T09:05:07;23.20;99.90
18721;DHT22;9489;50.948;3.114;2023-07-20T09:07:33;23.40;1.00
18721;DHT22;9489;50.948;3.114;2023-07-20T09:10:00;23.70;99.90
18721;DHT22;9489;50.948;3.114;2023-07-20T09:12:32;23.70;99.90
18721;DHT22;9489;50.948;3.114;2023-07-20T09:14:58;23.70;1.00
18721;DHT22;9489;50.948;3.114;2023-07-20T09:17:25;23.70;1.00
18721;DHT22;9489;50.948;3.114;2023-07-20T09:19:51;23.70;1.00
18721;DHT22;9489;50.948;3.114;2023-07-20T09:22:17;23.90;1.00
18721;DHT22;9489;50.948;3.114;2023-07-20T09:24:43;24.00;1.00
18721;DHT22;9489;50.948;3.114;2023-07-20T09:27:09;23.90;1.00
18721;DHT22;9489;50.948;3.114;2023-07-20T09:29:50;23.80;99.90
18721;DHT22;9489;50.948;3.114;2023-07-20T09:32:20;23.80;1.00
18721;DHT22;9489;50.948;3.114;2023-07-20T09:34:46;23.80;1.00
18721;DHT22;9489;50.948;3.114;2023-07-20T09:37:12;23.60;99.90
18721;DHT22;9489;50.948;3.114;2023-07-20T09:39:44;23.60;1.00
18721;DHT22;9489;50.948;3.114;2023-07-20T09:42:13;23.20;1.00
18721;DHT22;9489;50.948;3.114;2023-07-20T09:44:39;22.90;99.90
18721;DHT22;9489;50.948;3.114;2023-07-20T09:47:06;22.90;99.90
18721;DHT22;9489;50.948;3.114;2023-07-20T09:49:32;22.90;99.90
18721;DHT22;9489;50.948;3.114;2023-07-20T09:51:58;22.70;99.90
18721;DHT22;9489;50.948;3.114;2023-07-20T09:54:26;22.50;1.00
18721;DHT22;9489;50.948;3.114;2023-07-20T09:56:53;22.40;1.00
18721;DHT22;9489;50.948;3.114;2023-07-20T09:59:19;22.30;99.90
18721;DHT22;9489;50.948;3.114;2023-07-20T10:01:46;22.20;1.00
18721;DHT22;9489;50.948;3.114;2023-07-20T10:04:14;22.00;1.00
18721;DHT22;9489;50.948;3.114;2023-07-20T10:06:42;21.90;1.00
18721;DHT22;9489;50.948;3.114;2023-07-20T10:09:10;21.80;91.50
18721;DHT22;9489;50.948;3.114;2023-07-20T10:11:36;21.70;99.90
18721;DHT22;9489;50.948;3.114;2023-07-20T10:14:04;21.50;1.00
18721;DHT22;9489;50.948;3.114;2023-07-20T10:16:41;21.30;1.00
18721;DHT22;9489;50.948;3.114;2023-07-20T10:22:12;21.00;1.00
18721;DHT22;9489;50.948;3.114;2023-07-20T10:24:39;20.80;1.00
18721;DHT22;9489;50.948;3.114;2023-07-20T10:27:05;20.60;99.90
18721;DHT22;9489;50.948;3.114;2023-07-20T10:29:31;20.50;99.90
18721;DHT22;9489;50.948;3.114;2023-07-20T10:31:57;20.40;99.90
18721;DHT22;9489;50.948;3.114;2023-07-20T10:34:23;20.40;99.90
18721;DHT22;9489;50.948;3.114;2023-07-20T10:36:49;20.40;99.90
18721;DHT22;9489;50.948;3.114;2023-07-20T10:39:28;20.50;1.00
18721;DHT22;9489;50.948;3.114;2023-07-20T10:42:22;20.50;1.00
18721;DHT22;9489;50.948;3.114;2023-07-20T10:44:48;20.60;1.00
18721;DHT22;9489;50.948;3.114;2023-07-20T10:47:14;20.60;1.00
18721;DHT22;9489;50.948;3.114;2023-07-20T10:49:59;20.80;1.00
18721;DHT22;9489;50.948;3.114;2023-07-20T10:52:37;21.10;1.00
18721;DHT22;9489;50.948;3.114;2023-07-20T10:55:16;21.40;1.00
18721;DHT22;9489;50.948;3.114;2023-07-20T10:57:42;21.70;1.00
18721;DHT22;9489;50.948;3.114;2023-07-20T11:00:09;21.70;1.00
18721;DHT22;9489;50.948;3.114;2023-07-20T11:02:42;21.90;1.00
18721;DHT22;9489;50.948;3.114;2023-07-20T11:05:38;21.90;6.80
18721;DHT22;9489;50.948;3.114;2023-07-20T11:08:06;22.00;99.90
18721;DHT22;9489;50.948;3.114;2023-07-20T11:10:34;22.30;1.00
18721;DHT22;9489;50.948;3.114;2023-07-20T11:13:19;22.40;1.00
18721;DHT22;9489;50.948;3.114;2023-07-20T11:18:14;24.20;1.00
18721;DHT22;9489;50.948;3.114;2023-07-20T11:20:40;25.70;1.00
18721;DHT22;9489;50.948;3.114;2023-07-20T11:23:06;27.30;99.90
18721;DHT22;9489;50.948;3.114;2023-07-20T11:25:39;28.10;1.00
18721;DHT22;9489;50.948;3.114;2023-07-20T11:28:09;29.10;1.00
18721;DHT22;9489;50.948;3.114;2023-07-20T11:30:39;30.40;1.00
18721;DHT22;9489;50.948;3.114;2023-07-20T11:33:06;30.90;1.00
18721;DHT22;9489;50.948;3.114;2023-07-20T11:35:44;31.10;99.90
18721;DHT22;9489;50.948;3.114;2023-07-20T11:38:12;31.40;99.90
18721;DHT22;9489;50.948;3.114;2023-07-20T11:40:43;31.00;99.90
18721;DHT22;9489;50.948;3.114;2023-07-20T11:43:11;30.70;99.90
18721;DHT22;9489;50.948;3.114;2023-07-20T11:45:38;29.90;99.90
18721;DHT22;9489;50.948;3.114;2023-07-20T11:48:04;29.20;99.90
18721;DHT22;9489;50.948;3.114;2023-07-20T11:50:30;27.90;99.90
18721;DHT22;9489;50.948;3.114;2023-07-20T11:52:56;27.40;99.90
18721;DHT22;9489;50.948;3.114;2023-07-20T11:55:22;26.80;99.90
18721;DHT22;9489;50.948;3.114;2023-07-20T11:58:04;26.60;1.00
18721;DHT22;9489;50.948;3.114;2023-07-20T12:00:31;26.40;1.00
18721;DHT22;9489;50.948;3.114;2023-07-20T12:02:56;26.40;1.00
18721;DHT22;9489;50.948;3.114;2023-07-20T12:05:22;26.50;1.00
18721;DHT22;9489;50.948;3.114;2023-07-20T12:07:49;26.90;1.00
18721;DHT22;9489;50.948;3.114;2023-07-20T12:10:15;27.30;1.00
18721;DHT22;9489;50.948;3.114;2023-07-20T12:12:43;27.30;99.90
18721;DHT22;9489;50.948;3.114;2023-07-20T12:15:22;26.80;1.00
18721;DHT22;9489;50.948;3.114;2023-07-20T12:17:53;26.80;1.00
18721;DHT22;9489;50.948;3.114;2023-07-20T12:20:32;26.50;1.00
18721;DHT22;9489;50.948;3.114;2023-07-20T12:23:12;26.20;1.00
18721;DHT22;9489;50.948;3.114;2023-07-20T12:25:45;25.80;1.00
18721;DHT22;9489;50.948;3.114;2023-07-20T12:28:16;25.40;1.00
18721;DHT22;9489;50.948;3.114;2023-07-20T12:30:43;24.80;1.00
18721;DHT22;9489;50.948;3.114;2023-07-20T12:33:09;24.30;99.90
18721;DHT22;9489;50.948;3.114;2023-07-20T12:35:35;24.10;1.00
18721;DHT22;9489;50.948;3.114;2023-07-20T12:38:01;23.80;99.90
18721;DHT22;9489;50.948;3.114;2023-07-20T12:40:27;23.50;1.00
18721;DHT22;9489;50.948;3.114;2023-07-20T12:42:52;22.70;14.20
18721;DHT22;9489;50.948;3.114;2023-07-20T12:45:18;21.70;1.00
18721;DHT22;9489;50.948;3.114;2023-07-20T12:47:44;21.20;1.00
18721;DHT22;9489;50.948;3.114;2023-07-20T12:50:10;20.80;1.00
18721;DHT22;9489;50.948;3.114;2023-07-20T12:52:37;20.40;1.00
18721;DHT22;9489;50.948;3.114;2023-07-20T12:55:07;20.20;21.30
18721;DHT22;9489;50.948;3.114;2023-07-20T12:57:34;19.90;62.20
18721;DHT22;9489;50.948;3.114;2023-07-20T13:00:01;19.80;79.30
18721;DHT22;9489;50.948;3.114;2023-07-20T13:02:29;19.80;92.60
18721;DHT22;9489;50.948;3.114;2023-07-20T13:04:55;19.70;99.90
18721;DHT22;9489;50.948;3.114;2023-07-20T13:07:30;19.60;99.90
18721;DHT22;9489;50.948;3.114;2023-07-20T13:09:56;19.50;99.90
18721;DHT22;9489;50.948;3.114;2023-07-20T13:12:21;19.40;99.90
18721;DHT22;9489;50.948;3.114;2023-07-20T13:14:47;19.50;99.90
18721;DHT22;9489;50.948;3.114;2023-07-20T13:17:13;19.50;99.90
18721;DHT22;9489;50.948;3.114;2023-07-20T13:19:38;19.40;99.90
18721;DHT22;9489;50.948;3.114;2023-07-20T13:22:04;19.30;99.90
18721;DHT22;9489;50.948;3.114;2023-07-20T13:24:30;19.20;99.90
18721;DHT22;9489;50.948;3.114;2023-07-20T13:26:55;19.20;99.90
18721;DHT22;9489;50.948;3.114;2023-07-20T13:29:21;19.10;99.90
18721;DHT22;9489;50.948;3.114;2023-07-20T13:31:47;19.00;99.90
18721;DHT22;9489;50.948;3.114;2023-07-20T13:34:12;19.10;99.90
18721;DHT22;9489;50.948;3.114;2023-07-20T13:36:38;19.00;99.90
18721;DHT22;9489;50.948;3.114;2023-07-20T13:39:03;19.10;99.90
18721;DHT22;9489;50.948;3.114;2023-07-20T13:41:30;19.30;99.90
18721;DHT22;9489;50.948;3.114;2023-07-20T13:43:57;19.50;99.90
18721;DHT22;9489;50.948;3.114;2023-07-20T13:46:23;19.60;99.90
18721;DHT22;9489;50.948;3.114;2023-07-20T13:48:49;19.60;99.90
18721;DHT22;9489;50.948;3.114;2023-07-20T13:51:14;19.70;99.90
18721;DHT22;9489;50.948;3.114;2023-07-20T13:53:40;19.70;99.90
18721;DHT22;9489;50.948;3.114;2023-07-20T13:56:06;19.80;99.90
18721;DHT22;9489;50.948;3.114;2023-07-20T13:58:32;19.80;99.90
18721;DHT22;9489;50.948;3.114;2023-07-20T14:00:58;19.70;99.90
18721;DHT22;9489;50.948;3.114;2023-07-20T14:03:24;19.70;99.90
18721;DHT22;9489;50.948;3.114;2023-07-20T14:05:50;19.80;99.90
18721;DHT22;9489;50.948;3.114;2023-07-20T14:08:16;19.90;99.90
18721;DHT22;9489;50.948;3.114;2023-07-20T14:10:41;20.10;99.90
18721;DHT22;9489;50.948;3.114;2023-07-20T14:13:07;20.10;99.90
18721;DHT22;9489;50.948;3.114;2023-07-20T14:15:35;20.20;99.90
18721;DHT22;9489;50.948;3.114;2023-07-20T14:18:00;20.40;99.90
18721;DHT22;9489;50.948;3.114;2023-07-20T14:20:26;20.60;99.90
18721;DHT22;9489;50.948;3.114;2023-07-20T14:22:52;20.80;99.90
18721;DHT22;9489;50.948;3.114;2023-07-20T14:25:17;21.00;99.90
18721;DHT22;9489;50.948;3.114;2023-07-20T14:27:43;21.30;99.90
18721;DHT22;9489;50.948;3.114;2023-07-20T14:30:09;21.40;98.40
18721;DHT22;9489;50.948;3.114;2023-07-20T14:32:34;21.70;93.90
18721;DHT22;9489;50.948;3.114;2023-07-20T14:35:00;21.80;64.30
18721;DHT22;9489;50.948;3.114;2023-07-20T14:37:26;22.10;58.30
18721;DHT22;9489;50.948;3.114;2023-07-20T14:39:51;22.30;13.80
18721;DHT22;9489;50.948;3.114;2023-07-20T14:42:18;22.30;1.00
18721;DHT22;9489;50.948;3.114;2023-07-20T14:44:44;22.30;1.00
18721;DHT22;9489;50.948;3.114;2023-07-20T14:47:09;22.40;1.00
18721;DHT22;9489;50.948;3.114;2023-07-20T14:49:35;22.50;1.00
18721;DHT22;9489;50.948;3.114;2023-07-20T14:52:01;22.50;1.00
18721;DHT22;9489;50.948;3.114;2023-07-20T14:54:27;22.70;1.00
18721;DHT22;9489;50.948;3.114;2023-07-20T14:56:52;22.70;1.00
18721;DHT22;9489;50.948;3.114;2023-07-20T14:59:19;22.80;1.00
18721;DHT22;9489;50.948;3.114;2023-07-20T15:01:45;22.90;1.00
18721;DHT22;9489;50.948;3.114;2023-07-20T15:04:16;23.00;1.00
18721;DHT22;9489;50.948;3.114;2023-07-20T15:06:42;23.10;1.00
18721;DHT22;9489;50.948;3.114;2023-07-20T15:09:08;23.10;99.90
18721;DHT22;9489;50.948;3.114;2023-07-20T15:11:35;23.10;99.90
18721;DHT22;9489;50.948;3.114;2023-07-20T15:14:01;23.10;99.90
18721;DHT22;9489;50.948;3.114;2023-07-20T15:16:27;23.20;99.90
18721;DHT22;9489;50.948;3.114;2023-07-20T15:18:52;23.30;99.90
18721;DHT22;9489;50.948;3.114;2023-07-20T15:21:18;23.30;99.90
18721;DHT22;9489;50.948;3.114;2023-07-20T15:23:44;23.30;20.50
18721;DHT22;9489;50.948;3.114;2023-07-20T15:26:10;23.10;1.00
18721;DHT22;9489;50.948;3.114;2023-07-20T15:28:37;23.00;1.00
18721;DHT22;9489;50.948;3.114;2023-07-20T15:31:04;22.60;1.00
18721;DHT22;9489;50.948;3.114;2023-07-20T15:33:30;22.40;1.00
18721;DHT22;9489;50.948;3.114;2023-07-20T15:35:57;22.40;80.40
18721;DHT22;9489;50.948;3.114;2023-07-20T15:38:22;22.40;1.00
18721;DHT22;9489;50.948;3.114;2023-07-20T15:40:48;22.40;99.90
18721;DHT22;9489;50.948;3.114;2023-07-20T15:43:15;22.40;1.00
18721;DHT22;9489;50.948;3.114;2023-07-20T15:45:40;22.40;1.00
18721;DHT22;9489;50.948;3.114;2023-07-20T15:48:06;22.50;1.00
18721;DHT22;9489;50.948;3.114;2023-07-20T15:50:32;22.50;99.90
18721;DHT22;9489;50.948;3.114;2023-07-20T15:52:57;22.60;99.90
18721;DHT22;9489;50.948;3.114;2023-07-20T15:55:23;22.50;1.00
18721;DHT22;9489;50.948;3.114;2023-07-20T15:57:48;22.40;1.00